sensor_id;sensor_type;location;lat;lon;timestamp;P1;durP1;ratioP1;P2;durP2;ratioP2
18580;SDS011;9420;50.876;7.012;2024-03-06T00:01:48;36.93;;;23.30;;
18580;SDS011;9420;50.876;7.012;2024-03-06T00:04:15;41.77;;;25.10;;
18580;SDS011;9420;50.876;7.012;2024-03-06T00:06:43;42.00;;;24.30;;
18580;SDS011;9420;50.876;7.012;2024-03-06T00:09:09;51.00;;;27.03;;
18580;SDS011;9420;50.876;7.012;2024-03-06T00:11:37;45.93;;;28.07;;
18580;SDS011;9420;50.876;7.012;2024-03-06T00:14:03;45.60;;;27.13;;
18580;SDS011;9420;50.876;7.012;2024-03-06T00:16:30;46.30;;;28.00;;
18580;SDS011;9420;50.876;7.012;2024-03-06T00:18:57;58.63;;;30.17;;
18580;SDS011;9420;50.876;7.012;2024-03-06T00:21:23;46.07;;;27.73;;
18580;SDS011;9420;50.876;7.012;2024-03-06T00:23:51;54.37;;;28.33;;
18580;SDS011;9420;50.876;7.012;2024-03-06T00:26:18;47.80;;;28.23;;
18580;SDS011;9420;50.876;7.012;2024-03-06T00:28:44;54.23;;;31.00;;
18580;SDS011;9420;50.876;7.012;2024-03-06T00:31:11;50.93;;;30.03;;
18580;SDS011;9420;50.876;7.012;2024-03-06T00:33:37;45.83;;;28.33;;
18580;SDS011;9420;50.876;7.012;2024-03-06T00:36:05;49.77;;;28.10;;
18580;SDS011;9420;50.876;7.012;2024-03-06T00:38:32;46.73;;;26.73;;
18580;SDS011;9420;50.876;7.012;2024-03-06T00:41:00;50.83;;;27.23;;
18580;SDS011;9420;50.876;7.012;2024-03-06T00:43:27;46.97;;;25.90;;
18580;SDS011;9420;50.876;7.012;2024-03-06T00:45:54;39.43;;;24.87;;
18580;SDS011;9420;50.876;7.012;2024-03-06T00:48:21;46.37;;;26.63;;
18580;SDS011;9420;50.876;7.012;2024-03-06T00:50:47;42.30;;;25.10;;
18580;SDS011;9420;50.876;7.012;2024-03-06T00:53:14;41.80;;;24.73;;
18580;SDS011;9420;50.876;7.012;2024-03-06T00:55:40;42.47;;;25.37;;
18580;SDS011;9420;50.876;7.012;2024-03-06T00:58:09;45.37;;;26.93;;
18580;SDS011;9420;50.876;7.012;2024-03-06T01:00:35;47.60;;;25.27;;
18580;SDS011;9420;50.876;7.012;2024-03-06T01:03:03;42.17;;;25.27;;
18580;SDS011;9420;50.876;7.012;2024-03-06T01:05:30;47.10;;;26.30;;
18580;SDS011;9420;50.876;7.012;2024-03-06T01:07:57;43.93;;;25.63;;
18580;SDS011;9420;50.876;7.012;2024-03-06T01:10:24;48.27;;;26.67;;
18580;SDS011;9420;50.876;7.012;2024-03-06T01:12:51;45.87;;;26.80;;
18580;SDS011;9420;50.876;7.012;2024-03-06T01:15:19;47.03;;;26.57;;
18580;SDS011;9420;50.876;7.012;2024-03-06T01:17:45;39.90;;;22.13;;
18580;SDS011;9420;50.876;7.012;2024-03-06T01:20:12;46.90;;;24.53;;
18580;SDS011;9420;50.876;7.012;2024-03-06T01:22:39;42.53;;;24.57;;
18580;SDS011;9420;50.876;7.012;2024-03-06T01:25:06;36.80;;;23.83;;
18580;SDS011;9420;50.876;7.012;2024-03-06T01:27:32;38.03;;;22.00;;
18580;SDS011;9420;50.876;7.012;2024-03-06T01:29:59;41.10;;;23.13;;
18580;SDS011;9420;50.876;7.012;2024-03-06T01:32:27;34.47;;;21.37;;
18580;SDS011;9420;50.876;7.012;2024-03-06T01:34:54;31.13;;;20.07;;
18580;SDS011;9420;50.876;7.012;2024-03-06T01:37:20;35.80;;;20.50;;
18580;SDS011;9420;50.876;7.012;2024-03-06T01:39:47;35.97;;;22.50;;
18580;SDS011;9420;50.876;7.012;2024-03-06T01:42:16;39.30;;;21.67;;
18580;SDS011;9420;50.876;7.012;2024-03-06T01:44:43;35.00;;;21.10;;
18580;SDS011;9420;50.876;7.012;2024-03-06T01:47:09;39.03;;;21.03;;
18580;SDS011;9420;50.876;7.012;2024-03-06T01:49:37;27.73;;;19.23;;
18580;SDS011;9420;50.876;7.012;2024-03-06T01:52:04;34.40;;;18.97;;
18580;SDS011;9420;50.876;7.012;2024-03-06T01:54:31;28.33;;;16.97;;
18580;SDS011;9420;50.876;7.012;2024-03-06T01:56:58;24.67;;;15.83;;
18580;SDS011;9420;50.876;7.012;2024-03-06T01:59:28;30.80;;;18.73;;
18580;SDS011;9420;50.876;7.012;2024-03-06T02:01:54;38.47;;;21.17;;
18580;SDS011;9420;50.876;7.012;2024-03-06T02:04:26;30.83;;;20.00;;
18580;SDS011;9420;50.876;7.012;2024-03-06T02:06:54;34.23;;;18.63;;
18580;SDS011;9420;50.876;7.012;2024-03-06T02:09:21;29.53;;;18.63;;
18580;SDS011;9420;50.876;7.012;2024-03-06T02:11:49;27.93;;;19.07;;
18580;SDS011;9420;50.876;7.012;2024-03-06T02:14:16;27.87;;;18.53;;
18580;SDS011;9420;50.876;7.012;2024-03-06T02:16:43;21.83;;;14.90;;
18580;SDS011;9420;50.876;7.012;2024-03-06T02:19:09;27.30;;;15.80;;
18580;SDS011;9420;50.876;7.012;2024-03-06T02:21:38;20.20;;;14.03;;
18580;SDS011;9420;50.876;7.012;2024-03-06T02:24:04;26.80;;;18.23;;
18580;SDS011;9420;50.876;7.012;2024-03-06T02:26:31;28.20;;;18.63;;
18580;SDS011;9420;50.876;7.012;2024-03-06T02:28:57;27.23;;;18.13;;
18580;SDS011;9420;50.876;7.012;2024-03-06T02:31:24;24.83;;;17.60;;
18580;SDS011;9420;50.876;7.012;2024-03-06T02:33:51;31.23;;;17.00;;
18580;SDS011;9420;50.876;7.012;2024-03-06T02:36:17;25.27;;;18.50;;
18580;SDS011;9420;50.876;7.012;2024-03-06T02:38:46;23.83;;;16.43;;
18580;SDS011;9420;50.876;7.012;2024-03-06T02:41:12;24.07;;;16.13;;
18580;SDS011;9420;50.876;7.012;2024-03-06T02:43:41;23.73;;;15.47;;
18580;SDS011;9420;50.876;7.012;2024-03-06T02:46:08;19.43;;;14.10;;
18580;SDS011;9420;50.876;7.012;2024-03-06T02:48:34;23.47;;;15.47;;
18580;SDS011;9420;50.876;7.012;2024-03-06T02:51:01;21.57;;;15.00;;
18580;SDS011;9420;50.876;7.012;2024-03-06T02:53:28;20.00;;;14.03;;
18580;SDS011;9420;50.876;7.012;2024-03-06T02:55:56;20.33;;;12.67;;
18580;SDS011;9420;50.876;7.012;2024-03-06T02:58:22;18.23;;;12.93;;
18580;SDS011;9420;50.876;7.012;2024-03-06T03:00:49;20.70;;;12.40;;
18580;SDS011;9420;50.876;7.012;2024-03-06T03:03:16;19.90;;;12.33;;
18580;SDS011;9420;50.876;7.012;2024-03-06T03:05:42;21.17;;;14.03;;
18580;SDS011;9420;50.876;7.012;2024-03-06T03:08:09;22.57;;;14.30;;
18580;SDS011;9420;50.876;7.012;2024-03-06T03:10:35;17.80;;;12.20;;
18580;SDS011;9420;50.876;7.012;2024-03-06T03:13:04;17.40;;;12.93;;
18580;SDS011;9420;50.876;7.012;2024-03-06T03:15:30;20.27;;;11.83;;
18580;SDS011;9420;50.876;7.012;2024-03-06T03:17:58;17.20;;;11.03;;
18580;SDS011;9420;50.876;7.012;2024-03-06T03:20:24;17.67;;;11.60;;
18580;SDS011;9420;50.876;7.012;2024-03-06T03:22:51;15.13;;;11.30;;
18580;SDS011;9420;50.876;7.012;2024-03-06T03:25:17;15.73;;;10.20;;
18580;SDS011;9420;50.876;7.012;2024-03-06T03:27:47;12.53;;;9.27;;
18580;SDS011;9420;50.876;7.012;2024-03-06T03:30:15;13.43;;;9.37;;
18580;SDS011;9420;50.876;7.012;2024-03-06T03:32:41;12.17;;;7.93;;
18580;SDS011;9420;50.876;7.012;2024-03-06T03:35:08;11.97;;;8.10;;
18580;SDS011;9420;50.876;7.012;2024-03-06T03:37:35;11.33;;;7.63;;
18580;SDS011;9420;50.876;7.012;2024-03-06T03:40:02;10.80;;;7.80;;
18580;SDS011;9420;50.876;7.012;2024-03-06T03:42:29;11.33;;;6.93;;
18580;SDS011;9420;50.876;7.012;2024-03-06T03:44:55;10.37;;;7.03;;
18580;SDS011;9420;50.876;7.012;2024-03-06T03:47:23;9.13;;;6.97;;
18580;SDS011;9420;50.876;7.012;2024-03-06T03:49:50;12.10;;;6.80;;
18580;SDS011;9420;50.876;7.012;2024-03-06T03:52:16;11.03;;;6.50;;
18580;SDS011;9420;50.876;7.012;2024-03-06T03:54:43;7.47;;;6.03;;
18580;SDS011;9420;50.876;7.012;2024-03-06T03:57:10;8.57;;;6.10;;
18580;SDS011;9420;50.876;7.012;2024-03-06T03:59:39;7.40;;;5.77;;
18580;SDS011;9420;50.876;7.012;2024-03-06T04:02:06;8.90;;;5.50;;
18580;SDS011;9420;50.876;7.012;2024-03-06T04:04:34;6.27;;;4.53;;
18580;SDS011;9420;50.876;7.012;2024-03-06T04:07:01;5.87;;;3.80;;
18580;SDS011;9420;50.876;7.012;2024-03-06T04:09:28;5.80;;;3.80;;
18580;SDS011;9420;50.876;7.012;2024-03-06T04:11:55;5.30;;;4.13;;
18580;SDS011;9420;50.876;7.012;2024-03-06T04:14:21;4.73;;;3.70;;
18580;SDS011;9420;50.876;7.012;2024-03-06T04:16:48;8.03;;;3.77;;
18580;SDS011;9420;50.876;7.012;2024-03-06T04:19:14;5.97;;;3.73;;
18580;SDS011;9420;50.876;7.012;2024-03-06T04:21:43;3.97;;;3.20;;
18580;SDS011;9420;50.876;7.012;2024-03-06T04:24:10;5.93;;;3.90;;
18580;SDS011;9420;50.876;7.012;2024-03-06T04:26:36;6.40;;;3.87;;
18580;SDS011;9420;50.876;7.012;2024-03-06T04:29:03;9.37;;;3.70;;
18580;SDS011;9420;50.876;7.012;2024-03-06T04:31:30;7.10;;;3.93;;
18580;SDS011;9420;50.876;7.012;2024-03-06T04:33:56;8.53;;;3.90;;
18580;SDS011;9420;50.876;7.012;2024-03-06T04:36:23;5.57;;;4.17;;
18580;SDS011;9420;50.876;7.012;2024-03-06T04:38:51;5.80;;;3.33;;
18580;SDS011;9420;50.876;7.012;2024-03-06T04:41:18;4.60;;;3.57;;
18580;SDS011;9420;50.876;7.012;2024-03-06T04:43:44;7.00;;;3.70;;
18580;SDS011;9420;50.876;7.012;2024-03-06T04:46:12;4.60;;;3.63;;
18580;SDS011;9420;50.876;7.012;2024-03-06T04:48:39;4.13;;;3.50;;
18580;SDS011;9420;50.876;7.012;2024-03-06T04:51:06;9.93;;;3.37;;
18580;SDS011;9420;50.876;7.012;2024-03-06T04:53:35;5.83;;;3.93;;
18580;SDS011;9420;50.876;7.012;2024-03-06T04:56:03;8.20;;;4.70;;
18580;SDS011;9420;50.876;7.012;2024-03-06T04:58:29;6.47;;;3.93;;
18580;SDS011;9420;50.876;7.012;2024-03-06T05:00:56;7.47;;;4.17;;
18580;SDS011;9420;50.876;7.012;2024-03-06T05:03:23;5.93;;;4.13;;
18580;SDS011;9420;50.876;7.012;2024-03-06T05:05:50;7.90;;;4.23;;
18580;SDS011;9420;50.876;7.012;2024-03-06T05:08:17;4.00;;;3.33;;
18580;SDS011;9420;50.876;7.012;2024-03-06T05:10:43;4.27;;;3.10;;
18580;SDS011;9420;50.876;7.012;2024-03-06T05:13:11;4.17;;;2.97;;
18580;SDS011;9420;50.876;7.012;2024-03-06T05:15:38;4.87;;;3.60;;
18580;SDS011;9420;50.876;7.012;2024-03-06T05:18:05;6.57;;;3.13;;
18580;SDS011;9420;50.876;7.012;2024-03-06T05:20:33;7.03;;;4.13;;
18580;SDS011;9420;50.876;7.012;2024-03-06T05:23:00;7.47;;;3.60;;
18580;SDS011;9420;50.876;7.012;2024-03-06T05:25:27;6.90;;;3.33;;
18580;SDS011;9420;50.876;7.012;2024-03-06T05:27:54;5.70;;;4.07;;
18580;SDS011;9420;50.876;7.012;2024-03-06T05:30:22;4.50;;;3.80;;
18580;SDS011;9420;50.876;7.012;2024-03-06T05:32:49;6.53;;;3.50;;
18580;SDS011;9420;50.876;7.012;2024-03-06T05:35:17;6.17;;;3.40;;
18580;SDS011;9420;50.876;7.012;2024-03-06T05:37:44;6.17;;;3.87;;
18580;SDS011;9420;50.876;7.012;2024-03-06T05:40:11;5.43;;;3.80;;
18580;SDS011;9420;50.876;7.012;2024-03-06T05:42:38;4.53;;;3.40;;
18580;SDS011;9420;50.876;7.012;2024-03-06T05:45:05;7.57;;;3.30;;
18580;SDS011;9420;50.876;7.012;2024-03-06T05:47:37;4.50;;;3.43;;
18580;SDS011;9420;50.876;7.012;2024-03-06T05:50:04;5.80;;;3.43;;
18580;SDS011;9420;50.876;7.012;2024-03-06T05:52:31;3.57;;;2.87;;
18580;SDS011;9420;50.876;7.012;2024-03-06T05:54:58;3.47;;;3.13;;
18580;SDS011;9420;50.876;7.012;2024-03-06T05:57:25;4.33;;;2.80;;
18580;SDS011;9420;50.876;7.012;2024-03-06T05:59:52;6.57;;;3.50;;
18580;SDS011;9420;50.876;7.012;2024-03-06T06:02:19;7.10;;;3.00;;
18580;SDS011;9420;50.876;7.012;2024-03-06T06:04:48;6.23;;;3.50;;
18580;SDS011;9420;50.876;7.012;2024-03-06T06:07:14;7.60;;;3.37;;
18580;SDS011;9420;50.876;7.012;2024-03-06T06:09:41;5.10;;;3.40;;
18580;SDS011;9420;50.876;7.012;2024-03-06T06:12:08;5.63;;;3.70;;
18580;SDS011;9420;50.876;7.012;2024-03-06T06:14:34;3.90;;;3.40;;
18580;SDS011;9420;50.876;7.012;2024-03-06T06:17:01;5.03;;;3.83;;
18580;SDS011;9420;50.876;7.012;2024-03-06T06:19:28;6.90;;;3.30;;
18580;SDS011;9420;50.876;7.012;2024-03-06T06:21:56;6.43;;;4.00;;
18580;SDS011;9420;50.876;7.012;2024-03-06T06:24:23;4.10;;;3.00;;
18580;SDS011;9420;50.876;7.012;2024-03-06T06:26:49;7.33;;;4.03;;
18580;SDS011;9420;50.876;7.012;2024-03-06T06:29:17;4.67;;;3.43;;
18580;SDS011;9420;50.876;7.012;2024-03-06T06:31:44;4.60;;;3.33;;
18580;SDS011;9420;50.876;7.012;2024-03-06T06:34:10;5.87;;;3.90;;
18580;SDS011;9420;50.876;7.012;2024-03-06T06:36:37;6.37;;;3.10;;
18580;SDS011;9420;50.876;7.012;2024-03-06T06:39:07;4.93;;;3.10;;
18580;SDS011;9420;50.876;7.012;2024-03-06T06:41:35;5.33;;;2.77;;
18580;SDS011;9420;50.876;7.012;2024-03-06T06:44:02;6.57;;;3.30;;
18580;SDS011;9420;50.876;7.012;2024-03-06T06:46:28;5.80;;;3.77;;
18580;SDS011;9420;50.876;7.012;2024-03-06T06:48:56;9.77;;;3.90;;
18580;SDS011;9420;50.876;7.012;2024-03-06T06:51:23;7.50;;;3.50;;
18580;SDS011;9420;50.876;7.012;2024-03-06T06:53:50;7.50;;;3.83;;
18580;SDS011;9420;50.876;7.012;2024-03-06T06:56:18;7.30;;;3.50;;
18580;SDS011;9420;50.876;7.012;2024-03-06T06:58:44;7.53;;;3.80;;
18580;SDS011;9420;50.876;7.012;2024-03-06T07:01:11;5.03;;;3.80;;
18580;SDS011;9420;50.876;7.012;2024-03-06T07:03:37;7.70;;;4.80;;
18580;SDS011;9420;50.876;7.012;2024-03-06T07:06:04;9.97;;;5.33;;
18580;SDS011;9420;50.876;7.012;2024-03-06T07:08:32;9.33;;;6.43;;
18580;SDS011;9420;50.876;7.012;2024-03-06T07:10:58;10.67;;;6.53;;
18580;SDS011;9420;50.876;7.012;2024-03-06T07:13:26;14.27;;;7.47;;
18580;SDS011;9420;50.876;7.012;2024-03-06T07:15:53;14.97;;;9.00;;
18580;SDS011;9420;50.876;7.012;2024-03-06T07:18:19;15.57;;;9.07;;
18580;SDS011;9420;50.876;7.012;2024-03-06T07:20:46;16.53;;;9.97;;
18580;SDS011;9420;50.876;7.012;2024-03-06T07:23:13;22.60;;;11.90;;
18580;SDS011;9420;50.876;7.012;2024-03-06T07:25:39;18.10;;;9.90;;
18580;SDS011;9420;50.876;7.012;2024-03-06T07:28:06;18.03;;;10.37;;
18580;SDS011;9420;50.876;7.012;2024-03-06T07:30:34;20.43;;;11.70;;
18580;SDS011;9420;50.876;7.012;2024-03-06T07:33:01;22.03;;;12.00;;
18580;SDS011;9420;50.876;7.012;2024-03-06T07:35:27;20.90;;;12.80;;
18580;SDS011;9420;50.876;7.012;2024-03-06T07:37:54;24.43;;;13.90;;
18580;SDS011;9420;50.876;7.012;2024-03-06T07:40:21;21.13;;;13.50;;
18580;SDS011;9420;50.876;7.012;2024-03-06T07:42:47;20.87;;;13.13;;
18580;SDS011;9420;50.876;7.012;2024-03-06T07:45:14;24.30;;;13.43;;
18580;SDS011;9420;50.876;7.012;2024-03-06T07:47:42;22.27;;;12.23;;
18580;SDS011;9420;50.876;7.012;2024-03-06T07:50:10;22.27;;;11.77;;
18580;SDS011;9420;50.876;7.012;2024-03-06T07:52:37;17.67;;;10.00;;
18580;SDS011;9420;50.876;7.012;2024-03-06T07:55:05;17.63;;;9.77;;
18580;SDS011;9420;50.876;7.012;2024-03-06T07:57:31;15.20;;;9.50;;
18580;SDS011;9420;50.876;7.012;2024-03-06T07:59:58;11.27;;;7.93;;
18580;SDS011;9420;50.876;7.012;2024-03-06T08:02:25;12.17;;;7.73;;
18580;SDS011;9420;50.876;7.012;2024-03-06T08:04:54;11.53;;;8.27;;
18580;SDS011;9420;50.876;7.012;2024-03-06T08:07:21;11.63;;;7.47;;
18580;SDS011;9420;50.876;7.012;2024-03-06T08:09:47;13.90;;;8.53;;
18580;SDS011;9420;50.876;7.012;2024-03-06T08:12:14;11.27;;;7.63;;
18580;SDS011;9420;50.876;7.012;2024-03-06T08:14:41;12.47;;;7.60;;
18580;SDS011;9420;50.876;7.012;2024-03-06T08:17:07;11.13;;;7.67;;
18580;SDS011;9420;50.876;7.012;2024-03-06T08:19:34;14.00;;;8.87;;
18580;SDS011;9420;50.876;7.012;2024-03-06T08:22:02;15.43;;;9.70;;
18580;SDS011;9420;50.876;7.012;2024-03-06T08:24:29;19.30;;;11.53;;
18580;SDS011;9420;50.876;7.012;2024-03-06T08:26:55;19.90;;;11.87;;
18580;SDS011;9420;50.876;7.012;2024-03-06T08:29:22;22.63;;;13.37;;
18580;SDS011;9420;50.876;7.012;2024-03-06T08:31:49;20.23;;;11.80;;
18580;SDS011;9420;50.876;7.012;2024-03-06T08:34:15;24.90;;;12.23;;
18580;SDS011;9420;50.876;7.012;2024-03-06T08:36:42;24.97;;;14.63;;
18580;SDS011;9420;50.876;7.012;2024-03-06T08:39:10;18.30;;;12.13;;
18580;SDS011;9420;50.876;7.012;2024-03-06T08:41:41;19.53;;;12.70;;
18580;SDS011;9420;50.876;7.012;2024-03-06T08:44:08;27.87;;;12.83;;
18580;SDS011;9420;50.876;7.012;2024-03-06T08:46:34;18.50;;;11.33;;
18580;SDS011;9420;50.876;7.012;2024-03-06T08:49:01;21.20;;;13.03;;
18580;SDS011;9420;50.876;7.012;2024-03-06T08:51:27;17.40;;;12.73;;
18580;SDS011;9420;50.876;7.012;2024-03-06T08:53:54;21.33;;;14.03;;
18580;SDS011;9420;50.876;7.012;2024-03-06T08:56:22;20.90;;;12.43;;
18580;SDS011;9420;50.876;7.012;2024-03-06T08:58:49;18.37;;;11.60;;
18580;SDS011;9420;50.876;7.012;2024-03-06T09:01:15;19.57;;;13.00;;
18580;SDS011;9420;50.876;7.012;2024-03-06T09:03:42;20.07;;;12.50;;
18580;SDS011;9420;50.876;7.012;2024-03-06T09:06:08;20.90;;;13.47;;
18580;SDS011;9420;50.876;7.012;2024-03-06T09:08:35;17.27;;;12.17;;
18580;SDS011;9420;50.876;7.012;2024-03-06T09:11:02;16.07;;;11.73;;
18580;SDS011;9420;50.876;7.012;2024-03-06T09:13:30;18.23;;;12.13;;
18580;SDS011;9420;50.876;7.012;2024-03-06T09:15:57;17.70;;;12.43;;
18580;SDS011;9420;50.876;7.012;2024-03-06T09:18:24;19.43;;;12.03;;
18580;SDS011;9420;50.876;7.012;2024-03-06T09:20:51;20.43;;;12.40;;
18580;SDS011;9420;50.876;7.012;2024-03-06T09:23:17;20.73;;;12.03;;
18580;SDS011;9420;50.876;7.012;2024-03-06T09:25:44;19.57;;;11.77;;
18580;SDS011;9420;50.876;7.012;2024-03-06T09:28:14;16.20;;;10.80;;
18580;SDS011;9420;50.876;7.012;2024-03-06T09:30:42;17.23;;;11.50;;
18580;SDS011;9420;50.876;7.012;2024-03-06T09:33:09;17.87;;;10.93;;
18580;SDS011;9420;50.876;7.012;2024-03-06T09:35:38;15.73;;;9.90;;
18580;SDS011;9420;50.876;7.012;2024-03-06T09:38:10;17.83;;;10.13;;
18580;SDS011;9420;50.876;7.012;2024-03-06T09:40:38;16.40;;;10.50;;
18580;SDS011;9420;50.876;7.012;2024-03-06T09:43:05;15.07;;;10.10;;
18580;SDS011;9420;50.876;7.012;2024-03-06T09:45:32;17.37;;;10.20;;
18580;SDS011;9420;50.876;7.012;2024-03-06T09:48:00;14.80;;;9.90;;
18580;SDS011;9420;50.876;7.012;2024-03-06T09:50:27;16.10;;;9.33;;
18580;SDS011;9420;50.876;7.012;2024-03-06T09:52:59;15.73;;;10.13;;
18580;SDS011;9420;50.876;7.012;2024-03-06T09:55:29;16.10;;;10.70;;
18580;SDS011;9420;50.876;7.012;2024-03-06T09:57:56;17.10;;;11.63;;
18580;SDS011;9420;50.876;7.012;2024-03-06T10:00:22;16.23;;;11.17;;
18580;SDS011;9420;50.876;7.012;2024-03-06T10:02:51;16.60;;;10.67;;
18580;SDS011;9420;50.876;7.012;2024-03-06T10:05:24;14.97;;;8.10;;
18580;SDS011;9420;50.876;7.012;2024-03-06T10:07:52;11.93;;;8.70;;
18580;SDS011;9420;50.876;7.012;2024-03-06T10:10:19;12.43;;;7.13;;
18580;SDS011;9420;50.876;7.012;2024-03-06T10:12:47;11.33;;;6.37;;
18580;SDS011;9420;50.876;7.012;2024-03-06T10:15:15;8.90;;;6.47;;
18580;SDS011;9420;50.876;7.012;2024-03-06T10:17:41;12.23;;;7.00;;
18580;SDS011;9420;50.876;7.012;2024-03-06T10:20:18;14.63;;;7.70;;
18580;SDS011;9420;50.876;7.012;2024-03-06T10:22:48;9.13;;;7.20;;
18580;SDS011;9420;50.876;7.012;2024-03-06T10:25:18;14.37;;;8.30;;
18580;SDS011;9420;50.876;7.012;2024-03-06T10:27:45;13.50;;;7.73;;
18580;SDS011;9420;50.876;7.012;2024-03-06T10:30:12;11.03;;;7.83;;
18580;SDS011;9420;50.876;7.012;2024-03-06T10:32:41;14.20;;;8.83;;
18580;SDS011;9420;50.876;7.012;2024-03-06T10:35:17;13.47;;;9.33;;
18580;SDS011;9420;50.876;7.012;2024-03-06T10:37:44;19.03;;;8.97;;
18580;SDS011;9420;50.876;7.012;2024-03-06T10:40:13;15.30;;;10.23;;
18580;SDS011;9420;50.876;7.012;2024-03-06T10:42:42;17.83;;;10.47;;
18580;SDS011;9420;50.876;7.012;2024-03-06T10:45:10;14.47;;;9.70;;
18580;SDS011;9420;50.876;7.012;2024-03-06T10:47:40;19.33;;;10.40;;
18580;SDS011;9420;50.876;7.012;2024-03-06T10:50:08;17.90;;;12.20;;
18580;SDS011;9420;50.876;7.012;2024-03-06T10:52:36;15.07;;;11.33;;
18580;SDS011;9420;50.876;7.012;2024-03-06T10:55:06;17.43;;;10.80;;
18580;SDS011;9420;50.876;7.012;2024-03-06T10:57:36;17.73;;;11.70;;
18580;SDS011;9420;50.876;7.012;2024-03-06T11:00:04;20.93;;;12.13;;
18580;SDS011;9420;50.876;7.012;2024-03-06T11:02:32;19.53;;;13.13;;
18580;SDS011;9420;50.876;7.012;2024-03-06T11:05:03;22.23;;;14.13;;
18580;SDS011;9420;50.876;7.012;2024-03-06T11:07:30;16.73;;;11.83;;
18580;SDS011;9420;50.876;7.012;2024-03-06T11:09:58;19.83;;;11.40;;
18580;SDS011;9420;50.876;7.012;2024-03-06T11:12:35;17.40;;;11.70;;
18580;SDS011;9420;50.876;7.012;2024-03-06T11:15:13;22.77;;;13.80;;
18580;SDS011;9420;50.876;7.012;2024-03-06T11:17:40;17.43;;;12.00;;
18580;SDS011;9420;50.876;7.012;2024-03-06T11:20:14;15.23;;;10.70;;
18580;SDS011;9420;50.876;7.012;2024-03-06T11:23:02;13.13;;;8.87;;
18580;SDS011;9420;50.876;7.012;2024-03-06T11:28:38;13.47;;;8.93;;
18580;SDS011;9420;50.876;7.012;2024-03-06T11:31:15;14.60;;;10.47;;
18580;SDS011;9420;50.876;7.012;2024-03-06T11:33:44;17.53;;;9.57;;
18580;SDS011;9420;50.876;7.012;2024-03-06T11:36:15;12.23;;;8.97;;
18580;SDS011;9420;50.876;7.012;2024-03-06T11:38:47;16.20;;;9.53;;
18580;SDS011;9420;50.876;7.012;2024-03-06T11:41:14;15.77;;;10.47;;
18580;SDS011;9420;50.876;7.012;2024-03-06T11:43:43;13.97;;;9.60;;
18580;SDS011;9420;50.876;7.012;2024-03-06T11:46:11;9.90;;;6.77;;
18580;SDS011;9420;50.876;7.012;2024-03-06T11:48:37;7.90;;;6.17;;
18580;SDS011;9420;50.876;7.012;2024-03-06T11:51:04;8.13;;;6.63;;
18580;SDS011;9420;50.876;7.012;2024-03-06T11:53:30;9.07;;;5.97;;
18580;SDS011;9420;50.876;7.012;2024-03-06T11:55:59;8.00;;;5.63;;
18580;SDS011;9420;50.876;7.012;2024-03-06T11:58:26;5.95;;;4.88;;
18580;SDS011;9420;50.876;7.012;2024-03-06T12:00:54;7.25;;;5.53;;
18580;SDS011;9420;50.876;7.012;2024-03-06T12:03:21;6.47;;;5.72;;
18580;SDS011;9420;50.876;7.012;2024-03-06T12:05:50;8.90;;;5.90;;
18580;SDS011;9420;50.876;7.012;2024-03-06T12:08:16;9.67;;;6.53;;
18580;SDS011;9420;50.876;7.012;2024-03-06T12:10:44;8.63;;;6.27;;
18580;SDS011;9420;50.876;7.012;2024-03-06T12:13:11;11.83;;;7.13;;
18580;SDS011;9420;50.876;7.012;2024-03-06T12:15:38;11.40;;;7.20;;
18580;SDS011;9420;50.876;7.012;2024-03-06T12:18:09;11.37;;;8.20;;
18580;SDS011;9420;50.876;7.012;2024-03-06T12:20:39;10.10;;;7.23;;
18580;SDS011;9420;50.876;7.012;2024-03-06T12:23:10;11.70;;;7.87;;
18580;SDS011;9420;50.876;7.012;2024-03-06T12:25:45;13.20;;;8.27;;
18580;SDS011;9420;50.876;7.012;2024-03-06T12:28:11;12.00;;;7.67;;
18580;SDS011;9420;50.876;7.012;2024-03-06T12:30:40;10.63;;;7.70;;
18580;SDS011;9420;50.876;7.012;2024-03-06T12:33:08;10.15;;;7.25;;
18580;SDS011;9420;50.876;7.012;2024-03-06T12:35:39;11.63;;;7.20;;
18580;SDS011;9420;50.876;7.012;2024-03-06T12:38:15;12.27;;;7.47;;
18580;SDS011;9420;50.876;7.012;2024-03-06T12:40:43;11.27;;;7.50;;
18580;SDS011;9420;50.876;7.012;2024-03-06T12:43:09;9.63;;;6.95;;
18580;SDS011;9420;50.876;7.012;2024-03-06T12:45:36;8.25;;;7.13;;
18580;SDS011;9420;50.876;7.012;2024-03-06T12:48:04;8.20;;;6.45;;
18580;SDS011;9420;50.876;7.012;2024-03-06T12:50:33;9.77;;;7.47;;
18580;SDS011;9420;50.876;7.012;2024-03-06T12:52:59;8.77;;;6.85;;
18580;SDS011;9420;50.876;7.012;2024-03-06T12:55:26;8.63;;;6.38;;
18580;SDS011;9420;50.876;7.012;2024-03-06T12:57:53;8.35;;;5.53;;
18580;SDS011;9420;50.876;7.012;2024-03-06T13:00:19;6.88;;;6.10;;
18580;SDS011;9420;50.876;7.012;2024-03-06T13:02:46;7.07;;;6.13;;
18580;SDS011;9420;50.876;7.012;2024-03-06T13:05:13;8.88;;;5.15;;
18580;SDS011;9420;50.876;7.012;2024-03-06T13:07:41;7.13;;;4.72;;
18580;SDS011;9420;50.876;7.012;2024-03-06T13:10:09;5.70;;;4.15;;
18580;SDS011;9420;50.876;7.012;2024-03-06T13:12:36;5.00;;;3.70;;
18580;SDS011;9420;50.876;7.012;2024-03-06T13:15:03;5.00;;;4.40;;
18580;SDS011;9420;50.876;7.012;2024-03-06T13:17:32;5.15;;;3.88;;
18580;SDS011;9420;50.876;7.012;2024-03-06T13:19:59;5.00;;;4.03;;
18580;SDS011;9420;50.876;7.012;2024-03-06T13:22:26;4.70;;;3.55;;
18580;SDS011;9420;50.876;7.012;2024-03-06T13:24:54;6.13;;;3.75;;
18580;SDS011;9420;50.876;7.012;2024-03-06T13:27:22;7.20;;;4.60;;
18580;SDS011;9420;50.876;7.012;2024-03-06T13:29:49;4.80;;;4.00;;
18580;SDS011;9420;50.876;7.012;2024-03-06T13:32:16;6.30;;;4.25;;
18580;SDS011;9420;50.876;7.012;2024-03-06T13:34:44;6.97;;;4.40;;
18580;SDS011;9420;50.876;7.012;2024-03-06T13:37:10;6.63;;;4.03;;
18580;SDS011;9420;50.876;7.012;2024-03-06T13:39:37;5.07;;;4.25;;
18580;SDS011;9420;50.876;7.012;2024-03-06T13:42:06;7.68;;;4.65;;
18580;SDS011;9420;50.876;7.012;2024-03-06T13:44:35;5.45;;;4.15;;
18580;SDS011;9420;50.876;7.012;2024-03-06T13:47:14;4.50;;;3.90;;
18580;SDS011;9420;50.876;7.012;2024-03-06T13:49:41;6.63;;;4.47;;
18580;SDS011;9420;50.876;7.012;2024-03-06T13:52:09;6.00;;;4.28;;
18580;SDS011;9420;50.876;7.012;2024-03-06T13:54:38;6.55;;;5.10;;
18580;SDS011;9420;50.876;7.012;2024-03-06T13:57:08;4.00;;;3.50;;
18580;SDS011;9420;50.876;7.012;2024-03-06T13:59:35;4.18;;;3.10;;
18580;SDS011;9420;50.876;7.012;2024-03-06T14:02:03;3.58;;;3.28;;
18580;SDS011;9420;50.876;7.012;2024-03-06T14:04:30;3.53;;;3.22;;
18580;SDS011;9420;50.876;7.012;2024-03-06T14:06:57;5.25;;;4.03;;
18580;SDS011;9420;50.876;7.012;2024-03-06T14:09:25;4.95;;;3.70;;
18580;SDS011;9420;50.876;7.012;2024-03-06T14:12:05;8.07;;;3.95;;
18580;SDS011;9420;50.876;7.012;2024-03-06T14:14:33;5.13;;;2.92;;
18580;SDS011;9420;50.876;7.012;2024-03-06T14:17:00;3.90;;;3.33;;
18580;SDS011;9420;50.876;7.012;2024-03-06T14:19:26;5.47;;;3.13;;
18580;SDS011;9420;50.876;7.012;2024-03-06T14:21:53;4.60;;;3.17;;
18580;SDS011;9420;50.876;7.012;2024-03-06T14:24:20;4.40;;;3.15;;
18580;SDS011;9420;50.876;7.012;2024-03-06T14:26:47;5.53;;;3.47;;
18580;SDS011;9420;50.876;7.012;2024-03-06T14:29:15;5.70;;;3.72;;
18580;SDS011;9420;50.876;7.012;2024-03-06T14:31:43;4.18;;;2.83;;
18580;SDS011;9420;50.876;7.012;2024-03-06T14:34:10;3.85;;;2.90;;
18580;SDS011;9420;50.876;7.012;2024-03-06T14:36:36;4.68;;;3.28;;
18580;SDS011;9420;50.876;7.012;2024-03-06T14:39:03;12.52;;;3.50;;
18580;SDS011;9420;50.876;7.012;2024-03-06T14:41:29;4.70;;;3.30;;
18580;SDS011;9420;50.876;7.012;2024-03-06T14:43:57;6.27;;;4.00;;
18580;SDS011;9420;50.876;7.012;2024-03-06T14:46:23;4.17;;;3.10;;
18580;SDS011;9420;50.876;7.012;2024-03-06T14:48:51;6.10;;;3.93;;
18580;SDS011;9420;50.876;7.012;2024-03-06T14:51:18;3.80;;;3.17;;
18580;SDS011;9420;50.876;7.012;2024-03-06T14:53:45;4.17;;;3.50;;